Altamont, Kansas
Current Conditions -  °F | °C
As of 1:52 AM on Tuesday 27 Jan 2015 (Local Time) from KPPF Reporting Station
Clear Clear  
Wind Chill: 34°   Ceiling: Unl
Heat Index: 34°   Visibility: 10mi
Dew Point: 30°   Wind: 3mph
Humidity: 85%   Direction: 20°NNE
Pressure: 30.08"   Gusts: NA
Location:  37.19°N, 95.3°W
Report Text: KPPF 270752Z AUTO 02003KT 10SM CLR 01/M01 A3008 RMK AO2 SLP185 T00111011
Loading
Personal Weather Stations






























Interactive Weather Map New forecast layout! Learn more

10-Day Weather Forecast

Advertisements
Track Severe Weather on mobile